createdAt,value
2019-01-10T00:10:55.865Z,70.0
2019-01-10T00:27:29.108Z,70.4
2019-01-10T00:44:02.275Z,70.4
2019-01-10T01:00:35.541Z,71.2
2019-01-10T01:17:08.763Z,71.2
2019-01-10T01:33:42.026Z,71.2
2019-01-10T01:50:15.289Z,71.2
2019-01-10T02:06:48.613Z,71.6
2019-01-10T02:23:21.937Z,71.2
2019-01-10T02:39:55.200Z,71.6
2019-01-10T02:56:28.449Z,71.6
2019-01-10T03:13:01.663Z,72.0
2019-01-10T03:29:34.993Z,72.0
2019-01-10T03:46:08.337Z,72.0
2019-01-10T04:02:41.629Z,72.0
2019-01-10T04:19:14.931Z,72.4
2019-01-10T04:35:48.120Z,72.8
2019-01-10T04:52:21.319Z,72.8
2019-01-10T05:08:54.732Z,72.8
2019-01-10T05:25:28.010Z,72.8
2019-01-10T05:42:01.357Z,72.8
2019-01-10T05:58:34.658Z,72.8
2019-01-10T06:15:08.018Z,72.8
2019-01-10T06:31:41.361Z,73.2
2019-01-10T06:48:14.628Z,73.2
2019-01-10T07:04:48.010Z,73.6
2019-01-10T07:21:21.382Z,73.6
2019-01-10T07:37:54.788Z,73.6
2019-01-10T07:54:28.369Z,73.6
2019-01-10T08:11:01.993Z,73.6
2019-01-10T08:27:35.708Z,74.0
2019-01-10T08:44:09.525Z,73.6
2019-01-10T09:17:17.404Z,73.6
2019-01-10T09:33:51.291Z,73.6
2019-01-10T09:50:25.419Z,74.0
2019-01-10T10:06:59.555Z,73.6
2019-01-10T10:23:33.747Z,73.2
2019-01-10T10:40:07.925Z,73.6
2019-01-10T10:56:42.136Z,73.2
2019-01-10T11:13:16.854Z,73.6
2019-01-10T11:29:51.650Z,73.2
2019-01-10T11:46:26.498Z,72.8
2019-01-10T12:03:01.390Z,72.8
2019-01-10T12:19:36.622Z,73.2
2019-01-10T12:36:11.858Z,73.2
2019-01-10T12:52:46.917Z,72.4
2019-01-10T13:09:22.174Z,72.8
2019-01-10T13:25:59.802Z,72.4
2019-01-10T13:42:32.533Z,72.8
2019-01-10T13:59:07.744Z,72.0
2019-01-10T14:15:42.824Z,72.8
2019-01-10T14:32:18.013Z,72.4
2019-01-10T14:48:53.144Z,72.4
2019-01-10T15:05:34.170Z,72.8
2019-01-10T15:22:03.247Z,73.2
2019-01-10T15:38:38.236Z,73.2
2019-01-10T15:55:13.098Z,73.2
2019-01-10T16:11:47.763Z,73.6
2019-01-10T16:28:22.666Z,73.6
2019-01-10T16:44:57.513Z,73.6
2019-01-10T17:01:32.446Z,73.6
2019-01-10T17:18:07.327Z,73.6
2019-01-10T17:34:42.215Z,73.6
2019-01-10T17:51:17.161Z,73.6
2019-01-10T18:07:52.057Z,74.0
2019-01-10T18:24:26.934Z,74.4
2019-01-10T18:41:01.399Z,74.4
2019-01-10T18:57:35.741Z,74.4
2019-01-10T19:14:10.130Z,74.8
2019-01-10T19:30:44.697Z,75.2
2019-01-10T19:47:19.350Z,75.2
2019-01-10T20:03:55.820Z,75.2
2019-01-10T20:20:28.311Z,75.2
2019-01-10T20:37:02.732Z,75.6
2019-01-10T20:53:37.289Z,75.6
2019-01-10T21:10:11.549Z,75.6
2019-01-10T21:26:45.875Z,75.6
2019-01-10T21:59:54.156Z,76.0
2019-01-10T22:16:28.255Z,76.4
2019-01-10T22:33:02.277Z,76.4
2019-01-10T22:49:36.466Z,76.8
2019-01-10T23:06:10.525Z,76.4
2019-01-10T23:22:44.565Z,76.8
2019-01-10T23:39:19.189Z,76.8
2019-01-10T23:55:52.376Z,76.8
